Time;durP1;ratioP1;P1;durP2;ratioP2;P2;SDS_P1;SDS_P2;PMS_P1;PMS_P2;Temp;Humidity;BMP_temperature;BMP_pressure;BME280_temperature;BME280_humidity;BME280_pressure;Samples;Min_cycle;Max_cycle;Signal;HPM_P1;HPM_P2
2021/12/02 00:01:32;;;;;;;;;;;16.90;46.60;15.80;99181.00;;;;5056351;28;19974;-61
2021/12/02 00:04:18;;;;;;;;;;;16.90;46.60;15.80;99193.00;;;;5068332;28;19917;-61
2021/12/02 00:07:05;;;;;;;;;;;17.00;46.60;15.90;99195.00;;;;5059994;28;20354;-61
2021/12/02 00:09:51;;;;;;;;;;;16.90;46.50;15.80;99195.00;;;;5087747;28;20003;-61
2021/12/02 00:12:38;;;;;;;;;;;17.00;46.60;15.80;99210.00;;;;5067434;28;20362;-61
2021/12/02 00:15:29;;;;;;;;;;;17.00;46.60;15.90;99204.00;;;;5057367;28;20043;-62
2021/12/02 00:21:06;;;;;;;;;;;16.90;46.50;15.90;99216.00;;;;5060110;28;19921;-61
2021/12/02 00:24:04;;;;;;;;;;;17.00;46.50;15.80;99221.00;;;;5070496;28;20353;-61
2021/12/02 00:26:51;;;;;;;;;;;17.00;46.60;15.80;99211.00;;;;5073162;28;19924;-61
2021/12/02 00:29:39;;;;;;;;;;;17.00;46.50;15.90;99217.00;;;;5052334;28;20018;-61
2021/12/02 00:32:27;;;;;;;;;;;17.00;46.50;15.90;99221.00;;;;5076895;28;20161;-61
2021/12/02 00:35:16;;;;;;;;;;;17.00;46.50;15.90;99211.00;;;;5089119;28;20390;-61
2021/12/02 00:38:02;;;;;;;;;;;17.00;46.50;15.90;99210.00;;;;5069107;28;20008;-61
2021/12/02 00:40:49;;;;;;;;;;;17.00;46.50;15.90;99217.00;;;;5072236;28;19921;-61
2021/12/02 00:43:35;;;;;;;;;;;17.00;46.50;15.90;99219.00;;;;5059284;28;19924;-62
2021/12/02 00:46:23;;;;;;;;;;;17.00;46.50;15.90;99221.00;;;;5061403;28;20381;-61
2021/12/02 00:49:12;;;;;;;;;;;17.00;46.40;15.90;99219.00;;;;5065604;28;19916;-62
2021/12/02 00:52:01;;;;;;;;;;;17.00;46.40;15.90;99232.00;;;;5059837;28;20417;-61
2021/12/02 00:54:47;;;;;;;;;;;17.00;46.40;15.90;99226.00;;;;5077790;28;19922;-61
2021/12/02 00:57:33;;;;;;;;;;;17.00;46.40;15.90;99222.00;;;;5037850;28;19923;-61
2021/12/02 01:00:20;;;;;;;;;;;17.00;46.40;15.90;99231.00;;;;5065553;28;19916;-61
2021/12/02 01:03:06;;;;;;;;;;;17.00;46.40;15.90;99225.00;;;;5068066;28;19991;-61
2021/12/02 01:05:52;;;;;;;;;;;17.00;46.30;15.90;99228.00;;;;5071419;28;20422;-61
2021/12/02 01:08:40;;;;;;;;;;;17.00;46.30;15.90;99238.00;;;;5065023;28;19951;-62
2021/12/02 01:11:26;;;;;;;;;;;17.00;46.30;15.90;99237.00;;;;5074637;28;19916;-62
2021/12/02 01:14:12;;;;;;;;;;;17.00;46.30;15.80;99245.00;;;;5052269;28;19920;-61
2021/12/02 01:16:58;;;;;;;;;;;17.00;46.30;15.90;99247.00;;;;5078967;28;19921;-61
2021/12/02 01:19:44;;;;;;;;;;;17.00;46.30;15.90;99246.00;;;;5070821;28;19916;-61
2021/12/02 01:22:33;;;;;;;;;;;17.00;46.30;15.80;99250.00;;;;5059796;28;19921;-61
2021/12/02 01:25:19;;;;;;;;;;;17.00;46.30;15.90;99247.00;;;;5059931;28;19917;-61
2021/12/02 01:28:06;;;;;;;;;;;17.00;46.30;15.90;99250.00;;;;5070538;28;19959;-61
2021/12/02 01:30:52;;;;;;;;;;;17.00;46.30;15.90;99253.00;;;;5058272;28;19917;-60
2021/12/02 01:33:39;;;;;;;;;;;17.00;46.30;15.90;99243.00;;;;5077644;28;19916;-61
2021/12/02 01:36:25;;;;;;;;;;;17.00;46.20;15.80;99258.00;;;;5062253;28;20289;-61
2021/12/02 01:39:11;;;;;;;;;;;17.00;46.20;15.90;99256.00;;;;5040315;28;19970;-61
2021/12/02 01:41:58;;;;;;;;;;;17.00;46.20;15.80;99251.00;;;;5080977;28;20284;-61
2021/12/02 01:44:44;;;;;;;;;;;17.00;46.10;15.80;99250.00;;;;5079145;28;19950;-61
2021/12/02 01:47:32;;;;;;;;;;;17.00;46.10;15.80;99253.00;;;;5068750;28;20362;-61
2021/12/02 01:50:21;;;;;;;;;;;17.00;46.10;15.80;99259.00;;;;5072436;28;19969;-61
2021/12/02 01:53:07;;;;;;;;;;;17.00;46.10;15.80;99263.00;;;;5052978;28;20286;-61
2021/12/02 01:55:53;;;;;;;;;;;17.00;46.20;15.80;99257.00;;;;5058173;28;20326;-61
2021/12/02 01:58:46;;;;;;;;;;;17.00;46.10;15.80;99256.00;;;;5065091;28;20014;-61
2021/12/02 02:01:32;;;;;;;;;;;17.00;46.10;15.80;99258.00;;;;5068006;28;19925;-60
2021/12/02 02:04:23;;;;;;;;;;;17.00;46.10;15.80;99248.00;;;;5072979;28;19916;-61
2021/12/02 02:07:11;;;;;;;;;;;17.00;46.10;15.80;99249.00;;;;5060674;28;19924;-61
2021/12/02 02:09:57;;;;;;;;;;;16.90;46.00;15.80;99245.00;;;;5084232;27;19920;-61
2021/12/02 02:12:43;;;;;;;;;;;16.90;45.90;15.80;99242.00;;;;5056514;28;20274;-61
2021/12/02 02:15:29;;;;;;;;;;;16.90;46.00;15.80;99235.00;;;;5057620;28;19923;-61
2021/12/02 02:18:22;;;;;;;;;;;16.90;46.00;15.80;99235.00;;;;5048099;28;19967;-61
2021/12/02 02:21:10;;;;;;;;;;;16.90;46.00;15.80;99226.00;;;;5061284;28;20305;-61
2021/12/02 02:23:57;;;;;;;;;;;16.90;46.00;15.80;99226.00;;;;5066478;28;20008;-61
2021/12/02 02:26:43;;;;;;;;;;;16.90;46.00;15.80;99234.00;;;;5066375;28;19993;-61
2021/12/02 02:29:30;;;;;;;;;;;16.90;46.00;15.80;99238.00;;;;5071198;28;19921;-61
2021/12/02 02:32:17;;;;;;;;;;;16.90;46.00;15.80;99254.00;;;;5068619;28;20259;-61
2021/12/02 02:35:05;;;;;;;;;;;16.90;46.00;15.70;99252.00;;;;5071788;28;19952;-61
2021/12/02 02:37:51;;;;;;;;;;;16.90;46.00;15.80;99266.00;;;;5071541;28;19921;-61
2021/12/02 02:40:40;;;;;;;;;;;16.90;46.00;15.80;99263.00;;;;5053102;28;19923;-61
2021/12/02 02:43:27;;;;;;;;;;;16.90;46.00;15.80;99260.00;;;;5070624;28;19924;-61
2021/12/02 02:46:23;;;;;;;;;;;16.90;46.00;15.80;99273.00;;;;5064214;28;20011;-61
2021/12/02 02:49:11;;;;;;;;;;;16.90;46.00;15.80;99269.00;;;;5061706;28;20329;-61
2021/12/02 02:51:57;;;;;;;;;;;16.90;46.00;15.80;99273.00;;;;5085710;28;20345;-61
2021/12/02 02:54:43;;;;;;;;;;;16.90;46.00;15.80;99275.00;;;;5070540;28;19916;-61
2021/12/02 02:57:37;;;;;;;;;;;17.00;46.00;15.80;99271.00;;;;5052217;28;19920;-61
2021/12/02 03:00:31;;;;;;;;;;;17.00;46.00;15.80;99280.00;;;;5039301;28;19922;-61
2021/12/02 03:09:23;;;;;;;;;;;17.00;45.90;15.80;99273.00;;;;5076215;28;19920;-61
2021/12/02 03:12:22;;;;;;;;;;;17.00;45.90;15.80;99274.00;;;;5070760;28;19923;-62
2021/12/02 03:17:54;;;;;;;;;;;16.90;45.80;15.80;99278.00;;;;5075124;28;19923;-61
2021/12/02 03:20:40;;;;;;;;;;;16.90;45.80;15.80;99272.00;;;;5068494;28;19963;-61
2021/12/02 03:23:27;;;;;;;;;;;16.90;45.80;15.80;99285.00;;;;5071731;28;20006;-61
2021/12/02 03:26:13;;;;;;;;;;;16.90;45.80;15.80;99269.00;;;;5050985;28;19916;-61
2021/12/02 03:28:59;;;;;;;;;;;17.00;45.80;15.80;99273.00;;;;5055519;28;20019;-61
2021/12/02 03:31:45;;;;;;;;;;;16.90;45.80;15.80;99272.00;;;;5088645;28;20010;-61
2021/12/02 03:34:31;;;;;;;;;;;16.90;45.70;15.80;99276.00;;;;5059500;28;20394;-61
2021/12/02 03:37:19;;;;;;;;;;;16.90;45.70;15.80;99279.00;;;;5066534;28;20198;-60
2021/12/02 03:40:06;;;;;;;;;;;16.90;45.70;15.80;99276.00;;;;5054500;28;19921;-62
2021/12/02 03:42:52;;;;;;;;;;;16.90;45.70;15.80;99271.00;;;;5035430;28;19925;-61
2021/12/02 03:45:38;;;;;;;;;;;16.90;45.70;15.80;99273.00;;;;5045189;28;19917;-61
2021/12/02 03:48:24;;;;;;;;;;;16.90;45.60;15.80;99274.00;;;;5041565;28;19917;-61
2021/12/02 03:51:11;;;;;;;;;;;16.90;45.60;15.80;99270.00;;;;5058195;28;19978;-61
2021/12/02 03:53:57;;;;;;;;;;;16.90;45.70;15.70;99268.00;;;;5051607;28;20274;-61
2021/12/02 03:56:43;;;;;;;;;;;16.90;45.60;15.70;99266.00;;;;5035819;28;19917;-61
2021/12/02 03:59:31;;;;;;;;;;;16.90;45.60;15.70;99268.00;;;;5048578;28;20010;-61
2021/12/02 04:02:17;;;;;;;;;;;16.80;45.60;15.70;99266.00;;;;5049290;28;19927;-61
2021/12/02 04:05:04;;;;;;;;;;;16.80;45.60;15.70;99269.00;;;;5046782;28;19927;-61
2021/12/02 04:07:50;;;;;;;;;;;16.90;45.70;15.70;99269.00;;;;5035505;28;19921;-61
2021/12/02 04:10:37;;;;;;;;;;;16.80;45.60;15.70;99277.00;;;;5039527;28;19921;-61
2021/12/02 04:13:27;;;;;;;;;;;16.80;45.60;15.70;99277.00;;;;5037009;28;19916;-61
2021/12/02 04:16:17;;;;;;;;;;;16.80;45.60;15.70;99282.00;;;;5053160;28;19952;-61
2021/12/02 04:19:08;;;;;;;;;;;16.80;45.60;15.70;99283.00;;;;5046267;28;19974;-61
2021/12/02 04:21:54;;;;;;;;;;;16.70;45.60;15.70;99293.00;;;;5049968;28;20040;-61
2021/12/02 04:24:40;;;;;;;;;;;16.80;45.60;15.70;99289.00;;;;5048342;28;20606;-62
2021/12/02 04:27:27;;;;;;;;;;;16.90;45.70;15.70;99289.00;;;;5035704;28;20263;-62
2021/12/02 04:30:14;;;;;;;;;;;16.80;45.70;15.70;99296.00;;;;5039950;28;19924;-61
2021/12/02 04:33:00;;;;;;;;;;;16.80;45.60;15.70;99299.00;;;;5024796;28;19962;-61
2021/12/02 04:35:46;;;;;;;;;;;16.90;45.60;15.70;99304.00;;;;5047378;28;19920;-60
2021/12/02 04:38:32;;;;;;;;;;;16.90;45.70;15.70;99294.00;;;;5056252;28;20480;-61
2021/12/02 04:41:19;;;;;;;;;;;16.90;45.70;15.70;99290.00;;;;5083920;28;19920;-61
2021/12/02 04:44:05;;;;;;;;;;;16.80;45.70;15.70;99297.00;;;;5072459;28;19959;-61
2021/12/02 04:46:53;;;;;;;;;;;16.90;45.70;15.70;99300.00;;;;5069455;28;19935;-62
2021/12/02 04:49:41;;;;;;;;;;;16.90;45.70;15.80;99298.00;;;;5074189;28;20268;-61
2021/12/02 04:52:27;;;;;;;;;;;16.90;45.70;15.70;99298.00;;;;5078351;28;19967;-61
2021/12/02 04:55:13;;;;;;;;;;;16.90;45.70;15.70;99295.00;;;;5077307;28;20041;-61
2021/12/02 04:57:59;;;;;;;;;;;16.90;45.70;15.80;99289.00;;;;5058291;28;19921;-61
2021/12/02 05:00:45;;;;;;;;;;;16.90;45.70;15.80;99292.00;;;;5065460;28;19931;-61
2021/12/02 05:03:31;;;;;;;;;;;16.90;45.60;15.70;99309.00;;;;5064792;28;19921;-62
2021/12/02 05:06:18;;;;;;;;;;;16.90;45.70;15.70;99305.00;;;;5066557;28;20011;-61
2021/12/02 05:09:04;;;;;;;;;;;16.90;45.60;15.80;99306.00;;;;5059529;28;19917;-61
2021/12/02 05:11:50;;;;;;;;;;;16.90;45.60;15.80;99309.00;;;;5078468;28;19942;-61
2021/12/02 05:14:36;;;;;;;;;;;16.90;45.60;15.80;99297.00;;;;5060864;28;19932;-60
2021/12/02 05:17:22;;;;;;;;;;;16.90;45.60;15.80;99306.00;;;;5078029;28;20309;-61
2021/12/02 05:20:09;;;;;;;;;;;16.90;45.70;15.80;99310.00;;;;5067645;28;19916;-61
2021/12/02 05:22:55;;;;;;;;;;;16.90;45.60;15.80;99305.00;;;;5068426;28;20076;-61
2021/12/02 05:25:44;;;;;;;;;;;16.90;45.60;15.80;99312.00;;;;5077026;28;19916;-61
2021/12/02 05:28:30;;;;;;;;;;;16.90;45.60;15.80;99320.00;;;;5066042;28;19921;-61
2021/12/02 05:31:16;;;;;;;;;;;16.90;45.60;15.80;99314.00;;;;5070717;28;19920;-61
2021/12/02 05:34:02;;;;;;;;;;;16.90;45.60;15.80;99304.00;;;;5068346;28;19924;-61
2021/12/02 05:36:48;;;;;;;;;;;17.00;45.70;15.80;99310.00;;;;5075558;28;19916;-61
2021/12/02 05:39:34;;;;;;;;;;;16.90;45.60;15.80;99310.00;;;;5054067;28;19924;-61
2021/12/02 05:42:21;;;;;;;;;;;16.90;45.60;15.80;99311.00;;;;5074767;28;19931;-61
2021/12/02 05:45:07;;;;;;;;;;;16.90;45.60;15.80;99328.00;;;;5085947;28;19927;-61
2021/12/02 05:47:53;;;;;;;;;;;17.00;45.60;15.80;99326.00;;;;5064448;28;20027;-62
2021/12/02 05:50:41;;;;;;;;;;;17.00;45.60;15.80;99327.00;;;;5072527;28;22070;-61
2021/12/02 05:53:27;;;;;;;;;;;17.00;45.60;15.80;99321.00;;;;5075690;28;19920;-61
2021/12/02 05:56:13;;;;;;;;;;;17.00;45.60;15.80;99331.00;;;;5071135;28;19916;-61
2021/12/02 05:58:59;;;;;;;;;;;17.00;45.60;15.80;99336.00;;;;5077547;28;19927;-61
2021/12/02 06:01:45;;;;;;;;;;;17.00;45.60;15.80;99333.00;;;;5065896;28;19963;-61
2021/12/02 06:04:31;;;;;;;;;;;17.00;45.60;15.80;99322.00;;;;5053322;28;19920;-61
2021/12/02 06:07:18;;;;;;;;;;;17.00;45.60;15.80;99327.00;;;;5068632;28;19923;-61
2021/12/02 06:10:05;;;;;;;;;;;17.00;45.60;15.80;99326.00;;;;5055276;28;19927;-61
2021/12/02 06:12:51;;;;;;;;;;;17.00;45.60;15.80;99327.00;;;;5079193;28;19916;-61
2021/12/02 06:15:37;;;;;;;;;;;17.00;45.50;15.80;99336.00;;;;5077792;28;19916;-62
2021/12/02 06:18:23;;;;;;;;;;;17.00;45.50;15.80;99330.00;;;;5052649;28;19949;-61
2021/12/02 06:21:09;;;;;;;;;;;17.00;45.50;15.80;99339.00;;;;5075494;28;20662;-61
2021/12/02 06:23:56;;;;;;;;;;;17.00;45.50;15.80;99339.00;;;;5061406;28;20347;-61
2021/12/02 06:26:42;;;;;;;;;;;17.00;45.60;15.80;99348.00;;;;5078638;28;19920;-62
2021/12/02 06:29:28;;;;;;;;;;;16.90;45.40;15.80;99350.00;;;;5080166;28;20160;-61
2021/12/02 06:32:14;;;;;;;;;;;16.90;45.50;15.70;99360.00;;;;5072410;28;20023;-62
2021/12/02 06:35:01;;;;;;;;;;;16.90;45.40;15.70;99363.00;;;;5056659;28;19964;-61
2021/12/02 06:37:47;;;;;;;;;;;16.90;45.40;15.70;99365.00;;;;5062177;28;19921;-61
2021/12/02 06:40:34;;;;;;;;;;;16.90;45.50;15.70;99361.00;;;;5067531;28;19926;-61
2021/12/02 06:43:20;;;;;;;;;;;16.90;45.40;15.70;99357.00;;;;5085493;28;20289;-61
2021/12/02 06:46:07;;;;;;;;;;;16.90;45.40;15.70;99356.00;;;;5069041;28;19924;-61
2021/12/02 06:48:53;;;;;;;;;;;16.90;45.40;15.70;99367.00;;;;5078140;28;20025;-61
2021/12/02 06:51:39;;;;;;;;;;;16.90;45.40;15.70;99368.00;;;;5074018;28;19919;-61
2021/12/02 06:54:25;;;;;;;;;;;16.90;45.40;15.70;99371.00;;;;5058657;28;19919;-61
2021/12/02 06:57:11;;;;;;;;;;;16.90;45.40;15.70;99376.00;;;;5067415;28;19916;-61
2021/12/02 07:00:01;;;;;;;;;;;16.90;45.40;15.70;99382.00;;;;5088208;28;19916;-61
2021/12/02 07:02:49;;;;;;;;;;;16.90;45.40;15.70;99386.00;;;;5074285;28;19983;-61
2021/12/02 07:05:35;;;;;;;;;;;16.90;45.50;15.70;99379.00;;;;5069668;28;19916;-62
2021/12/02 07:08:21;;;;;;;;;;;16.90;45.40;15.70;99388.00;;;;5072458;28;20085;-61
2021/12/02 07:11:10;;;;;;;;;;;16.90;45.40;15.70;99388.00;;;;5066641;28;19917;-61
2021/12/02 07:14:03;;;;;;;;;;;16.90;45.40;15.70;99400.00;;;;5084471;28;19923;-61
2021/12/02 07:16:49;;;;;;;;;;;16.90;45.40;15.70;99395.00;;;;5066143;28;20422;-61
2021/12/02 07:19:39;;;;;;;;;;;16.90;45.40;15.70;99385.00;;;;5062341;28;20405;-62
2021/12/02 07:22:25;;;;;;;;;;;16.90;45.40;15.70;99398.00;;;;5062336;28;19945;-61
2021/12/02 07:25:11;;;;;;;;;;;16.90;45.40;15.70;99395.00;;;;5068150;28;19917;-61
2021/12/02 07:27:57;;;;;;;;;;;16.90;45.40;15.70;99410.00;;;;5064859;28;20389;-61
2021/12/02 07:30:44;;;;;;;;;;;16.90;45.40;15.70;99422.00;;;;5055909;28;20349;-61
2021/12/02 07:33:30;;;;;;;;;;;16.80;45.40;15.70;99420.00;;;;5090249;28;19923;-61
2021/12/02 07:36:16;;;;;;;;;;;16.80;45.40;15.70;99423.00;;;;5041993;28;19934;-61
2021/12/02 07:39:04;;;;;;;;;;;16.80;45.40;15.70;99434.00;;;;5035115;28;20032;-61
2021/12/02 07:41:50;;;;;;;;;;;16.90;45.40;15.70;99438.00;;;;5054794;28;20353;-61
2021/12/02 07:44:37;;;;;;;;;;;16.90;45.40;15.70;99443.00;;;;5054284;28;20262;-61
2021/12/02 07:47:23;;;;;;;;;;;16.90;45.40;15.70;99440.00;;;;5056745;28;20362;-61
2021/12/02 07:50:13;;;;;;;;;;;16.90;45.40;15.70;99444.00;;;;5038986;28;19948;-61
2021/12/02 07:53:00;;;;;;;;;;;16.90;45.40;15.70;99455.00;;;;5041352;28;19916;-61
2021/12/02 07:55:47;;;;;;;;;;;16.90;45.40;15.70;99461.00;;;;5052321;28;19917;-61
2021/12/02 07:58:33;;;;;;;;;;;16.90;45.40;15.70;99451.00;;;;5038055;28;19995;-61
2021/12/02 08:01:19;;;;;;;;;;;16.90;45.40;15.70;99462.00;;;;5061526;28;19920;-61
2021/12/02 08:04:05;;;;;;;;;;;16.90;45.40;15.70;99469.00;;;;5053653;28;19916;-61
2021/12/02 08:06:51;;;;;;;;;;;16.90;45.40;15.70;99461.00;;;;5058654;28;19916;-61
2021/12/02 08:09:37;;;;;;;;;;;16.90;45.40;15.70;99464.00;;;;5060720;28;19916;-61
2021/12/02 08:12:23;;;;;;;;;;;16.90;45.30;15.70;99463.00;;;;5049930;28;19921;-61
2021/12/02 08:15:09;;;;;;;;;;;16.90;45.30;15.70;99466.00;;;;5051097;28;19959;-62
2021/12/02 08:17:56;;;;;;;;;;;16.90;45.30;15.70;99471.00;;;;5052675;28;20746;-61
2021/12/02 08:20:43;;;;;;;;;;;16.90;45.30;15.70;99475.00;;;;5038641;28;20384;-61
2021/12/02 08:23:29;;;;;;;;;;;16.90;45.30;15.70;99492.00;;;;5060224;28;20278;-61
2021/12/02 08:26:16;;;;;;;;;;;16.90;45.40;15.70;99498.00;;;;5053666;28;20277;-61
2021/12/02 08:29:02;;;;;;;;;;;16.90;45.30;15.80;99503.00;;;;5054982;28;19920;-61
2021/12/02 08:31:48;;;;;;;;;;;16.90;45.30;15.80;99501.00;;;;5063526;28;19920;-61
2021/12/02 08:34:35;;;;;;;;;;;16.90;45.30;15.80;99507.00;;;;5050763;28;19920;-60
2021/12/02 08:37:21;;;;;;;;;;;16.90;45.30;15.70;99515.00;;;;5049192;28;19917;-61
2021/12/02 08:40:09;;;;;;;;;;;17.00;45.40;15.80;99521.00;;;;5073609;28;19916;-62
2021/12/02 08:42:55;;;;;;;;;;;17.00;45.30;15.80;99529.00;;;;5078694;28;19927;-61
2021/12/02 08:45:42;;;;;;;;;;;17.00;45.30;15.80;99521.00;;;;5064223;28;19927;-61
2021/12/02 08:48:29;;;;;;;;;;;17.00;45.30;15.80;99529.00;;;;5051407;28;19924;-61
2021/12/02 08:51:15;;;;;;;;;;;17.00;45.30;15.80;99529.00;;;;5059464;28;20609;-61
2021/12/02 08:54:01;;;;;;;;;;;17.00;45.30;15.80;99535.00;;;;5067484;28;19916;-61
2021/12/02 08:56:47;;;;;;;;;;;17.00;45.30;15.80;99534.00;;;;5068435;28;19920;-61
2021/12/02 08:59:34;;;;;;;;;;;17.00;45.30;15.80;99540.00;;;;5064751;28;19916;-61
2021/12/02 09:02:21;;;;;;;;;;;17.00;45.20;15.80;99545.00;;;;5058671;28;19924;-62
2021/12/02 09:05:07;;;;;;;;;;;17.00;45.20;15.80;99539.00;;;;5063733;28;20474;-61
2021/12/02 09:07:53;;;;;;;;;;;17.00;45.20;15.70;99550.00;;;;5072698;28;19916;-61
2021/12/02 09:10:40;;;;;;;;;;;17.00;45.20;15.70;99545.00;;;;5061891;28;19948;-61
2021/12/02 09:13:26;;;;;;;;;;;17.00;45.20;15.70;99554.00;;;;5068666;28;19920;-61
2021/12/02 09:16:12;;;;;;;;;;;17.00;45.20;15.70;99557.00;;;;5046693;28;19920;-62
2021/12/02 09:18:59;;;;;;;;;;;17.00;45.20;15.70;99563.00;;;;5045433;28;20277;-61
2021/12/02 09:21:45;;;;;;;;;;;17.00;45.20;15.70;99561.00;;;;5058782;28;19920;-61
2021/12/02 09:24:31;;;;;;;;;;;17.00;45.20;15.80;99570.00;;;;5061934;28;19916;-62
2021/12/02 09:27:17;;;;;;;;;;;17.00;45.20;15.80;99570.00;;;;5068907;28;19932;-61
2021/12/02 09:30:13;;;;;;;;;;;16.90;45.10;15.70;99580.00;;;;5061141;28;19927;-61
2021/12/02 09:32:59;;;;;;;;;;;16.90;45.10;15.70;99584.00;;;;5060105;28;19916;-61
2021/12/02 09:35:45;;;;;;;;;;;17.00;45.20;15.70;99582.00;;;;5065099;28;19920;-61
2021/12/02 09:38:31;;;;;;;;;;;17.00;45.20;15.70;99587.00;;;;5032039;28;19942;-61
2021/12/02 09:41:17;;;;;;;;;;;17.00;45.20;15.70;99582.00;;;;5066508;28;19927;-61
2021/12/02 09:44:03;;;;;;;;;;;16.90;45.10;15.70;99587.00;;;;5061979;28;19917;-61
2021/12/02 09:46:50;;;;;;;;;;;16.90;45.10;15.70;99586.00;;;;5077724;28;20396;-61
2021/12/02 09:49:36;;;;;;;;;;;16.90;45.10;15.70;99591.00;;;;5050835;28;20370;-61
2021/12/02 09:52:30;;;;;;;;;;;16.90;45.10;15.70;99592.00;;;;5068611;28;19917;-61
2021/12/02 09:55:31;;;;;;;;;;;16.90;45.10;15.70;99603.00;;;;5068164;28;20378;-62
2021/12/02 09:58:28;;;;;;;;;;;16.90;45.10;15.70;99604.00;;;;5050828;28;19916;-61
2021/12/02 10:01:17;;;;;;;;;;;16.90;45.10;15.70;99609.00;;;;5071641;28;19920;-61
2021/12/02 10:04:04;;;;;;;;;;;16.90;45.10;15.70;99609.00;;;;5055722;28;20164;-61
2021/12/02 10:07:12;;;;;;;;;;;16.90;45.10;15.70;99611.00;;;;5068957;28;19969;-61
2021/12/02 10:13:32;;;;;;;;;;;16.90;45.10;15.70;99611.00;;;;5026727;28;19917;-60
2021/12/02 10:16:26;;;;;;;;;;;16.90;45.10;15.70;99624.00;;;;5071020;28;19962;-61
2021/12/02 10:19:25;;;;;;;;;;;16.90;45.10;15.70;99623.00;;;;5074155;28;20395;-61
2021/12/02 10:22:13;;;;;;;;;;;16.90;45.20;15.70;99625.00;;;;5064794;28;19956;-62
2021/12/02 10:24:59;;;;;;;;;;;16.90;45.10;15.70;99625.00;;;;5070754;28;19945;-62
2021/12/02 10:28:04;;;;;;;;;;;16.90;45.10;15.70;99627.00;;;;5066200;28;19917;-61
2021/12/02 10:30:52;;;;;;;;;;;16.90;45.10;15.70;99627.00;;;;5072299;28;19929;-61
2021/12/02 10:33:54;;;;;;;;;;;16.90;45.10;15.70;99628.00;;;;5057489;28;19923;-61
2021/12/02 10:36:44;;;;;;;;;;;16.90;45.10;15.70;99630.00;;;;5082771;28;19938;-61
2021/12/02 10:39:30;;;;;;;;;;;16.90;45.10;15.70;99630.00;;;;5076372;28;20435;-62
2021/12/02 10:42:20;;;;;;;;;;;16.90;45.10;15.70;99624.00;;;;5060231;28;19924;-61
2021/12/02 10:45:26;;;;;;;;;;;16.80;45.10;15.70;99628.00;;;;5064678;28;19921;-61
2021/12/02 10:48:12;;;;;;;;;;;16.90;45.10;15.60;99632.00;;;;5050359;28;20359;-61
2021/12/02 10:50:58;;;;;;;;;;;16.90;45.10;15.70;99637.00;;;;5071276;28;19920;-62
2021/12/02 10:53:59;;;;;;;;;;;16.90;45.10;15.70;99646.00;;;;5056853;28;19923;-61
2021/12/02 10:56:48;;;;;;;;;;;16.90;45.10;15.70;99638.00;;;;5067937;28;20065;-61
2021/12/02 10:59:51;;;;;;;;;;;16.80;45.10;15.70;99637.00;;;;5084486;28;19963;-61
2021/12/02 11:02:39;;;;;;;;;;;16.90;45.10;15.70;99639.00;;;;5069646;28;20354;-61
2021/12/02 11:05:29;;;;;;;;;;;16.90;45.10;15.70;99643.00;;;;5063250;28;19947;-61
2021/12/02 11:08:16;;;;;;;;;;;16.90;45.10;15.70;99647.00;;;;5073342;28;19921;-61
2021/12/02 11:11:02;;;;;;;;;;;16.90;45.10;15.70;99648.00;;;;5062154;28;20319;-61
2021/12/02 11:13:48;;;;;;;;;;;16.90;45.10;15.70;99652.00;;;;5042698;28;20011;-60
2021/12/02 11:16:34;;;;;;;;;;;16.90;45.10;15.70;99659.00;;;;5080534;28;19916;-61
2021/12/02 11:19:21;;;;;;;;;;;16.90;45.10;15.70;99654.00;;;;5089181;28;19917;-61
2021/12/02 11:22:10;;;;;;;;;;;16.90;45.10;15.70;99650.00;;;;5072449;28;19924;-61
2021/12/02 11:24:56;;;;;;;;;;;16.90;45.10;15.70;99655.00;;;;5081923;28;19936;-61
2021/12/02 11:27:47;;;;;;;;;;;16.90;45.10;15.70;99657.00;;;;5065068;28;20297;-61
2021/12/02 11:30:35;;;;;;;;;;;16.90;45.10;15.80;99662.00;;;;5074760;28;19921;-61
2021/12/02 11:33:21;;;;;;;;;;;16.90;45.10;15.80;99665.00;;;;5061489;28;20320;-61
2021/12/02 11:36:25;;;;;;;;;;;17.00;45.90;15.80;99680.00;;;;5070220;28;19923;-61
2021/12/02 11:39:11;;;;;;;;;;;17.00;45.20;15.80;99678.00;;;;5063886;28;19920;-61
2021/12/02 11:41:57;;;;;;;;;;;17.00;45.20;15.80;99664.00;;;;5069655;28;19967;-62
2021/12/02 11:44:44;;;;;;;;;;;17.00;45.20;15.80;99662.00;;;;5059934;28;19916;-60
2021/12/02 11:47:30;;;;;;;;;;;17.00;45.20;15.80;99671.00;;;;5069175;28;19916;-61
2021/12/02 11:50:17;;;;;;;;;;;17.00;45.20;15.80;99668.00;;;;5054528;28;20342;-61
2021/12/02 11:53:03;;;;;;;;;;;17.00;45.20;15.80;99670.00;;;;5066588;28;19936;-61
2021/12/02 11:56:06;;;;;;;;;;;17.00;45.10;15.80;99681.00;;;;5070020;28;19916;-61
2021/12/02 11:58:52;;;;;;;;;;;17.00;45.20;15.80;99686.00;;;;5069916;28;19982;-61
2021/12/02 12:01:42;;;;;;;;;;;17.00;45.20;15.80;99686.00;;;;5058622;28;20337;-61
2021/12/02 12:04:28;;;;;;;;;;;17.00;45.20;15.80;99683.00;;;;5063700;28;19916;-62
2021/12/02 12:07:15;;;;;;;;;;;17.00;45.10;15.80;99684.00;;;;5057302;28;19924;-61
2021/12/02 12:10:38;;;;;;;;;;;17.00;45.10;15.80;99697.00;;;;5065008;28;19920;-61
2021/12/02 12:13:24;;;;;;;;;;;17.10;45.20;15.80;99696.00;;;;5037587;28;19924;-61
2021/12/02 12:16:22;;;;;;;;;;;17.10;45.10;15.80;99702.00;;;;5069574;28;19916;-61
2021/12/02 12:19:14;;;;;;;;;;;17.10;45.10;15.90;99711.00;;;;5065908;28;19927;-61
2021/12/02 12:22:04;;;;;;;;;;;17.10;45.10;15.90;99707.00;;;;5060684;28;19920;-61
2021/12/02 12:24:55;;;;;;;;;;;17.10;45.10;15.90;99710.00;;;;5081950;28;20007;-61
2021/12/02 12:27:41;;;;;;;;;;;17.10;45.00;15.90;99718.00;;;;5052076;28;19927;-61
2021/12/02 12:30:35;;;;;;;;;;;17.10;45.00;15.90;99717.00;;;;5077603;28;20335;-61
2021/12/02 12:33:37;;;;;;;;;;;17.10;45.00;15.90;99724.00;;;;5054574;28;20188;-61
2021/12/02 12:36:37;;;;;;;;;;;17.10;45.00;15.90;99729.00;;;;5053385;28;19970;-61
2021/12/02 12:39:25;;;;;;;;;;;17.10;45.00;15.90;99733.00;;;;5077917;28;19920;-61
2021/12/02 12:42:16;;;;;;;;;;;17.10;45.00;15.90;99736.00;;;;5061886;28;19994;-61
2021/12/02 12:45:04;;;;;;;;;;;17.10;45.00;15.90;99734.00;;;;5058240;28;19916;-61
2021/12/02 12:47:53;;;;;;;;;;;17.10;45.00;15.90;99738.00;;;;5086658;28;19917;-61
2021/12/02 12:50:45;;;;;;;;;;;17.10;44.90;15.90;99737.00;;;;5060161;28;19926;-62
2021/12/02 12:53:36;;;;;;;;;;;17.10;44.90;15.90;99748.00;;;;5081054;28;20003;-62
2021/12/02 12:56:30;;;;;;;;;;;17.10;44.90;15.90;99748.00;;;;5068314;28;20009;-62
2021/12/02 12:59:17;;;;;;;;;;;17.10;44.90;15.90;99751.00;;;;5060142;28;20006;-61
2021/12/02 13:02:03;;;;;;;;;;;17.10;44.90;15.90;99756.00;;;;5069518;28;19928;-61
2021/12/02 13:04:54;;;;;;;;;;;17.10;44.80;15.90;99768.00;;;;5073725;28;20193;-61
2021/12/02 13:07:42;;;;;;;;;;;17.10;44.80;15.90;99768.00;;;;5064962;28;19916;-61
2021/12/02 13:10:29;;;;;;;;;;;17.10;44.80;15.90;99765.00;;;;5058976;28;19921;-61
2021/12/02 13:13:30;;;;;;;;;;;17.10;44.80;15.90;99777.00;;;;5068832;28;19916;-61
2021/12/02 13:16:16;;;;;;;;;;;17.10;44.80;15.90;99776.00;;;;5066695;28;19970;-61
2021/12/02 13:19:13;;;;;;;;;;;17.10;44.80;15.90;99778.00;;;;5071090;28;19927;-61
2021/12/02 13:22:01;;;;;;;;;;;17.10;45.50;15.90;99774.00;;;;5056549;28;20431;-61
2021/12/02 13:24:47;;;;;;;;;;;17.10;44.80;15.90;99783.00;;;;5058034;28;19917;-61
2021/12/02 13:27:33;;;;;;;;;;;17.10;44.80;15.90;99782.00;;;;5047812;28;19924;-62
2021/12/02 13:30:19;;;;;;;;;;;17.10;44.80;15.90;99775.00;;;;5062608;28;19924;-61
2021/12/02 13:33:05;;;;;;;;;;;17.10;44.80;15.90;99781.00;;;;5071954;28;19938;-61
2021/12/02 13:36:01;;;;;;;;;;;17.20;44.80;15.90;99788.00;;;;5063392;28;19920;-61
2021/12/02 13:38:59;;;;;;;;;;;17.10;44.70;15.90;99787.00;;;;5062305;28;19924;-61
2021/12/02 13:41:55;;;;;;;;;;;17.10;44.80;15.90;99788.00;;;;5057463;28;19978;-61
2021/12/02 13:44:54;;;;;;;;;;;17.20;44.80;15.90;99797.00;;;;5078230;28;19916;-60
2021/12/02 13:47:41;;;;;;;;;;;17.10;44.70;15.90;99797.00;;;;5065818;28;20007;-61
2021/12/02 13:50:36;;;;;;;;;;;17.20;44.80;15.90;99802.00;;;;5061007;28;20295;-61
2021/12/02 13:53:22;;;;;;;;;;;17.20;44.80;15.90;99806.00;;;;5051362;28;19916;-61
2021/12/02 13:56:08;;;;;;;;;;;17.10;44.70;15.90;99811.00;;;;5073137;28;19956;-61